createdAt,value
2023-05-04T00:00:11.845Z,99.90
2023-05-04T00:02:58.726Z,99.90
2023-05-04T00:05:45.422Z,99.90
2023-05-04T00:08:33.054Z,99.90
2023-05-04T00:11:19.428Z,99.90
2023-05-04T00:14:06.420Z,99.90
2023-05-04T00:16:52.942Z,99.90
2023-05-04T00:19:42.104Z,99.90
2023-05-04T00:22:28.935Z,99.90
2023-05-04T00:25:16.947Z,99.90
2023-05-04T00:28:03.621Z,99.90
2023-05-04T00:30:50.451Z,99.90
2023-05-04T00:33:36.984Z,99.90
2023-05-04T00:36:23.983Z,99.90
2023-05-04T00:39:10.880Z,99.90
2023-05-04T00:41:58.681Z,99.90
2023-05-04T00:44:45.101Z,99.90
2023-05-04T00:47:31.595Z,99.90
2023-05-04T00:50:18.378Z,99.90
2023-05-04T00:53:10.155Z,99.90
2023-05-04T00:55:57.123Z,99.90
2023-05-04T00:58:45.230Z,99.90
2023-05-04T01:01:32.001Z,99.90
2023-05-04T01:04:18.890Z,99.90
2023-05-04T01:07:16.212Z,99.90
2023-05-04T01:10:06.052Z,99.90
2023-05-04T01:12:57.520Z,99.90
2023-05-04T01:15:46.068Z,99.90
2023-05-04T01:18:32.424Z,99.90
2023-05-04T01:21:21.231Z,99.90
2023-05-04T01:24:08.987Z,99.90
2023-05-04T01:26:58.813Z,99.90
2023-05-04T01:29:54.646Z,99.90
2023-05-04T01:32:43.648Z,99.90
2023-05-04T01:35:30.972Z,99.90
2023-05-04T01:38:17.724Z,99.90
2023-05-04T01:41:06.055Z,99.90
2023-05-04T01:43:54.044Z,99.90
2023-05-04T01:46:40.820Z,99.90
2023-05-04T01:49:27.762Z,99.90
2023-05-04T01:52:14.365Z,99.90
2023-05-04T01:55:01.022Z,99.90
2023-05-04T01:57:49.254Z,99.90
2023-05-04T02:00:36.209Z,99.90
2023-05-04T02:03:23.301Z,99.90
2023-05-04T02:06:10.049Z,99.90
2023-05-04T02:08:57.032Z,99.90
2023-05-04T02:11:43.644Z,99.90
2023-05-04T02:14:31.430Z,99.90
2023-05-04T02:17:17.979Z,99.90
2023-05-04T02:20:06.108Z,99.90
2023-05-04T02:22:52.684Z,99.90
2023-05-04T02:25:40.512Z,99.90
2023-05-04T02:28:28.630Z,99.90
2023-05-04T02:31:16.797Z,99.90
2023-05-04T02:34:03.302Z,99.90
2023-05-04T02:36:49.818Z,99.90
2023-05-04T02:39:36.318Z,99.90
2023-05-04T02:42:23.863Z,99.90
2023-05-04T02:45:11.168Z,99.90
2023-05-04T02:47:59.264Z,99.90
2023-05-04T02:50:46.671Z,99.90
2023-05-04T02:53:33.037Z,99.90
2023-05-04T02:56:19.446Z,99.90
2023-05-04T02:59:06.117Z,99.90
2023-05-04T03:01:53.007Z,99.90
2023-05-04T03:04:41.420Z,99.90
2023-05-04T03:07:29.535Z,99.90
2023-05-04T03:10:16.233Z,99.90
2023-05-04T03:13:06.129Z,99.90
2023-05-04T03:15:53.017Z,99.90
2023-05-04T03:18:39.926Z,99.90
2023-05-04T03:21:28.255Z,99.90
2023-05-04T03:24:15.754Z,99.90
2023-05-04T03:27:02.625Z,99.90
2023-05-04T03:29:49.235Z,99.90
2023-05-04T03:32:36.189Z,99.90
2023-05-04T03:35:25.042Z,99.90
2023-05-04T03:38:15.302Z,99.90
2023-05-04T03:41:03.570Z,99.90
2023-05-04T03:43:50.375Z,99.90
2023-05-04T03:46:38.552Z,99.90
2023-05-04T03:49:25.559Z,99.90
2023-05-04T03:52:12.212Z,99.90
2023-05-04T03:55:00.151Z,99.90
2023-05-04T03:57:47.162Z,99.90
2023-05-04T04:00:33.747Z,99.90
2023-05-04T04:03:28.889Z,99.90
2023-05-04T04:06:15.868Z,99.90
2023-05-04T04:09:02.837Z,99.90
2023-05-04T04:11:51.877Z,99.90
2023-05-04T04:14:38.334Z,99.90
2023-05-04T04:17:24.792Z,99.90
2023-05-04T04:20:13.864Z,99.90
2023-05-04T04:23:00.687Z,99.90
2023-05-04T04:25:47.131Z,99.90
2023-05-04T04:28:35.374Z,99.90
2023-05-04T04:31:22.415Z,99.90
2023-05-04T04:34:08.784Z,99.90
2023-05-04T04:36:55.708Z,99.90
2023-05-04T04:39:42.199Z,99.90
2023-05-04T04:42:29.048Z,99.90
2023-05-04T04:45:17.013Z,99.90
2023-05-04T04:48:05.084Z,99.90
2023-05-04T04:50:52.018Z,99.90
2023-05-04T04:53:38.699Z,99.90
2023-05-04T04:56:25.079Z,99.90
2023-05-04T04:59:11.703Z,99.90
2023-05-04T05:02:00.528Z,99.90
2023-05-04T05:04:48.118Z,99.90
2023-05-04T05:07:34.817Z,99.90
2023-05-04T05:10:22.214Z,99.90
2023-05-04T05:13:08.796Z,99.90
2023-05-04T05:15:55.714Z,99.90
2023-05-04T05:18:44.228Z,99.90
2023-05-04T05:21:31.082Z,99.90
2023-05-04T05:24:17.789Z,99.90
2023-05-04T05:27:04.801Z,99.90
2023-05-04T05:29:51.451Z,99.90
2023-05-04T05:32:38.028Z,99.90
2023-05-04T05:35:26.981Z,99.90
2023-05-04T05:38:13.666Z,99.90
2023-05-04T05:41:00.474Z,99.90
2023-05-04T05:43:47.197Z,99.90
2023-05-04T05:46:34.123Z,99.90
2023-05-04T05:49:20.992Z,99.90
2023-05-04T05:52:08.796Z,99.90
2023-05-04T05:54:55.502Z,99.90
2023-05-04T05:57:42.026Z,99.90
2023-05-04T06:00:28.863Z,99.90
2023-05-04T06:03:15.860Z,99.90
2023-05-04T06:06:02.544Z,99.90
2023-05-04T06:08:50.293Z,99.90
2023-05-04T06:11:36.967Z,99.90
2023-05-04T06:14:23.685Z,99.90
2023-05-04T06:17:10.332Z,99.90
2023-05-04T06:19:57.042Z,99.90
2023-05-04T06:22:43.592Z,99.90
2023-05-04T06:25:32.141Z,99.90
2023-05-04T06:28:19.082Z,99.90
2023-05-04T06:31:06.098Z,99.90
2023-05-04T06:33:52.762Z,99.90
2023-05-04T06:36:39.877Z,99.90
2023-05-04T06:39:26.536Z,99.90
2023-05-04T06:42:14.766Z,99.90
2023-05-04T06:45:02.230Z,99.90
2023-05-04T06:47:48.923Z,99.90
2023-05-04T06:50:36.229Z,99.90
2023-05-04T06:53:23.241Z,99.90
2023-05-04T06:56:09.786Z,99.90
2023-05-04T06:58:58.378Z,99.90
2023-05-04T07:01:45.453Z,99.90
2023-05-04T07:04:33.277Z,99.90
2023-05-04T07:07:19.667Z,99.90
2023-05-04T07:10:07.101Z,99.90
2023-05-04T07:12:54.078Z,99.90
2023-05-04T07:15:41.938Z,99.90
2023-05-04T07:18:28.716Z,99.90
2023-05-04T07:21:27.705Z,99.90
2023-05-04T07:24:15.185Z,99.90
2023-05-04T07:27:01.920Z,99.90
2023-05-04T07:29:50.689Z,99.80
2023-05-04T07:32:38.793Z,99.90
2023-05-04T07:35:25.373Z,99.90
2023-05-04T07:38:12.301Z,99.10
2023-05-04T07:40:58.820Z,98.60
2023-05-04T07:43:45.796Z,98.30
2023-05-04T07:46:32.378Z,98.90
2023-05-04T07:49:20.611Z,99.00
2023-05-04T07:52:07.229Z,97.60
2023-05-04T07:54:54.180Z,97.90
2023-05-04T07:57:41.280Z,98.20
2023-05-04T08:00:28.148Z,97.60
2023-05-04T08:03:14.448Z,97.20
2023-05-04T08:06:02.748Z,96.50
2023-05-04T08:08:51.997Z,96.30
2023-05-04T08:11:40.986Z,95.80
2023-05-04T08:14:27.887Z,95.60
2023-05-04T08:17:14.255Z,95.90
2023-05-04T08:20:01.109Z,94.90
2023-05-04T08:22:49.881Z,95.00
2023-05-04T08:25:36.666Z,95.00
2023-05-04T08:28:23.272Z,95.40
2023-05-04T08:31:10.999Z,95.50
2023-05-04T08:33:58.048Z,95.30
2023-05-04T08:36:44.859Z,95.00
2023-05-04T08:39:32.754Z,95.20
2023-05-04T08:42:28.805Z,95.70
2023-05-04T08:45:16.294Z,95.40
2023-05-04T08:48:03.882Z,96.00
2023-05-04T08:50:51.108Z,96.00
2023-05-04T08:53:42.688Z,96.40
2023-05-04T08:56:31.696Z,95.90
2023-05-04T08:59:21.224Z,96.00
2023-05-04T09:02:09.602Z,97.10
2023-05-04T09:04:56.296Z,95.50
2023-05-04T09:07:43.069Z,96.00
2023-05-04T09:10:29.993Z,96.10
2023-05-04T09:13:18.058Z,94.80
2023-05-04T09:16:05.541Z,95.60
2023-05-04T09:18:52.393Z,95.50
2023-05-04T09:21:39.134Z,95.50
2023-05-04T09:24:29.202Z,95.20
2023-05-04T09:27:18.046Z,94.40
2023-05-04T09:30:07.488Z,94.00
2023-05-04T09:32:54.306Z,95.00
2023-05-04T09:35:42.346Z,95.50
2023-05-04T09:38:29.119Z,95.30
2023-05-04T09:41:15.850Z,95.60
2023-05-04T09:44:03.410Z,94.70
2023-05-04T09:46:56.437Z,94.00
2023-05-04T09:49:42.754Z,93.90
2023-05-04T09:52:33.403Z,93.90
2023-05-04T09:55:21.435Z,93.80
2023-05-04T09:58:09.026Z,93.00
2023-05-04T10:00:55.852Z,93.10
2023-05-04T10:03:45.122Z,93.20
2023-05-04T10:06:31.737Z,92.60
2023-05-04T10:09:20.341Z,92.80
2023-05-04T10:12:07.636Z,92.70
2023-05-04T10:14:54.391Z,92.30
2023-05-04T10:18:01.080Z,92.50
2023-05-04T10:21:18.299Z,91.50
2023-05-04T10:24:28.860Z,91.40
2023-05-04T10:27:17.127Z,91.20
2023-05-04T10:30:05.011Z,91.00
2023-05-04T10:32:57.260Z,90.80
2023-05-04T10:35:52.881Z,90.60
2023-05-04T10:38:41.334Z,91.40
2023-05-04T10:41:28.034Z,91.40
2023-05-04T10:44:14.528Z,90.10
2023-05-04T10:47:03.164Z,90.40
2023-05-04T10:49:50.113Z,88.90
2023-05-04T10:52:51.138Z,88.80
2023-05-04T10:55:43.403Z,89.10
2023-05-04T10:58:30.535Z,88.60
2023-05-04T11:01:18.370Z,87.40
2023-05-04T11:04:05.702Z,87.60
2023-05-04T11:06:59.804Z,87.20
2023-05-04T11:09:46.369Z,86.20
2023-05-04T11:12:34.321Z,86.40
2023-05-04T11:15:22.905Z,86.10
2023-05-04T11:18:09.599Z,85.60
2023-05-04T11:20:57.068Z,85.10
2023-05-04T11:23:43.663Z,86.30
2023-05-04T11:26:30.439Z,85.30
2023-05-04T11:29:19.354Z,86.10
2023-05-04T11:32:06.389Z,85.50
2023-05-04T11:34:53.382Z,85.40
2023-05-04T11:37:41.316Z,84.10
2023-05-04T11:40:28.387Z,84.50
2023-05-04T11:43:15.024Z,82.80
2023-05-04T11:46:03.850Z,80.80
2023-05-04T11:48:51.479Z,81.20
2023-05-04T11:51:51.372Z,80.40
2023-05-04T11:54:38.147Z,80.80
2023-05-04T11:57:25.115Z,80.60
2023-05-04T12:00:14.573Z,81.30
2023-05-04T12:03:03.117Z,81.40
2023-05-04T12:05:51.280Z,82.80
2023-05-04T12:08:42.127Z,79.30
2023-05-04T12:11:28.974Z,79.40
2023-05-04T12:14:17.063Z,78.00
2023-05-04T12:17:03.955Z,78.10
2023-05-04T12:19:54.935Z,77.90
2023-05-04T12:22:41.819Z,76.00
2023-05-04T12:25:28.436Z,76.30
2023-05-04T12:28:15.130Z,77.20
2023-05-04T12:31:01.621Z,76.50
2023-05-04T12:33:48.529Z,76.90
2023-05-04T12:36:36.728Z,73.40
2023-05-04T12:39:24.090Z,75.10
2023-05-04T12:42:10.920Z,76.50
2023-05-04T12:44:57.368Z,76.50
2023-05-04T12:47:44.020Z,74.10
2023-05-04T12:50:31.013Z,76.70
2023-05-04T12:53:21.567Z,77.00
2023-05-04T12:56:08.248Z,77.10
2023-05-04T12:58:54.891Z,76.10
2023-05-04T13:01:42.223Z,74.60
2023-05-04T13:04:28.992Z,76.00
2023-05-04T13:07:15.764Z,74.30
2023-05-04T13:10:03.762Z,76.40
2023-05-04T13:12:51.127Z,74.70
2023-05-04T13:15:37.703Z,76.60
2023-05-04T13:18:26.974Z,77.90
2023-05-04T13:21:14.217Z,75.20
2023-05-04T13:24:01.626Z,75.00
2023-05-04T13:26:49.424Z,74.80
2023-05-04T13:29:35.914Z,76.10
2023-05-04T13:32:22.305Z,74.50
2023-05-04T13:35:10.108Z,74.60
2023-05-04T13:37:59.682Z,73.10
2023-05-04T13:40:46.384Z,73.70
2023-05-04T13:43:34.089Z,74.70
2023-05-04T13:46:21.339Z,76.70
2023-05-04T13:49:08.277Z,75.90
2023-05-04T13:51:57.285Z,73.70
2023-05-04T13:54:43.905Z,73.40
2023-05-04T13:57:31.566Z,74.60
2023-05-04T14:00:20.670Z,73.50
2023-05-04T14:03:07.688Z,75.70
2023-05-04T14:05:54.422Z,74.00
2023-05-04T14:08:41.534Z,73.20
2023-05-04T14:11:28.479Z,73.10
2023-05-04T14:14:15.249Z,71.30
2023-05-04T14:17:04.091Z,72.00
2023-05-04T14:19:50.754Z,72.20
2023-05-04T14:22:40.966Z,73.00
2023-05-04T14:25:27.571Z,72.90
2023-05-04T14:28:14.960Z,73.00
2023-05-04T14:31:08.693Z,70.40
2023-05-04T14:34:07.855Z,72.50
2023-05-04T14:36:54.353Z,71.50
2023-05-04T14:39:41.147Z,71.60
2023-05-04T14:42:27.457Z,72.70
2023-05-04T14:45:14.292Z,72.90
2023-05-04T14:48:01.035Z,71.80
2023-05-04T14:50:49.223Z,72.00
2023-05-04T14:53:39.286Z,74.50
2023-05-04T14:56:26.247Z,73.60
2023-05-04T14:59:13.465Z,72.90
2023-05-04T15:02:00.231Z,73.60
2023-05-04T15:04:47.107Z,72.80
2023-05-04T15:07:35.460Z,72.00
2023-05-04T15:10:22.045Z,73.70
2023-05-04T15:13:08.670Z,70.60
2023-05-04T15:15:55.565Z,71.80
2023-05-04T15:18:42.565Z,71.60
2023-05-04T15:21:29.517Z,70.00
2023-05-04T15:24:17.356Z,70.60
2023-05-04T15:27:04.158Z,71.70
2023-05-04T15:29:50.966Z,72.70
2023-05-04T15:32:37.338Z,70.80
2023-05-04T15:35:24.013Z,71.40
2023-05-04T15:38:10.645Z,71.50
2023-05-04T15:40:58.419Z,71.50
2023-05-04T15:43:44.923Z,70.70
2023-05-04T15:46:31.260Z,71.00
2023-05-04T15:49:19.133Z,71.20
2023-05-04T15:52:06.044Z,72.40
2023-05-04T15:54:52.533Z,72.20
2023-05-04T15:57:41.014Z,73.20
2023-05-04T16:00:28.187Z,73.40
2023-05-04T16:03:14.980Z,74.90
2023-05-04T16:06:02.073Z,72.20
2023-05-04T16:08:48.987Z,73.60
2023-05-04T16:11:36.830Z,73.90
2023-05-04T16:14:24.795Z,72.50
2023-05-04T16:17:11.231Z,72.80
2023-05-04T16:19:57.684Z,73.20
2023-05-04T16:22:44.609Z,72.80
2023-05-04T16:25:30.834Z,73.40
2023-05-04T16:28:17.273Z,73.40
2023-05-04T16:31:06.046Z,73.30
2023-05-04T16:33:53.393Z,73.90
2023-05-04T16:36:39.772Z,74.70
2023-05-04T16:39:30.040Z,74.30
2023-05-04T16:42:16.654Z,74.50
2023-05-04T16:45:05.081Z,75.00
2023-05-04T16:47:53.327Z,75.00
2023-05-04T16:50:40.086Z,75.10
2023-05-04T16:53:26.537Z,75.00
2023-05-04T16:56:18.038Z,75.60
2023-05-04T16:59:04.645Z,75.90
2023-05-04T17:01:51.192Z,75.20
2023-05-04T17:04:39.269Z,76.00
2023-05-04T17:07:25.780Z,76.00
2023-05-04T17:10:12.825Z,76.10
2023-05-04T17:13:00.929Z,76.70
2023-05-04T17:15:48.792Z,77.10
2023-05-04T17:18:35.907Z,77.70
2023-05-04T17:21:23.783Z,77.60
2023-05-04T17:24:10.131Z,77.60
2023-05-04T17:26:57.215Z,78.00
2023-05-04T17:29:44.086Z,78.90
2023-05-04T17:32:31.196Z,79.20
2023-05-04T17:35:25.390Z,79.90
2023-05-04T17:38:13.928Z,80.10
2023-05-04T17:41:00.435Z,79.70
2023-05-04T17:43:50.122Z,80.50
2023-05-04T17:46:37.260Z,80.40
2023-05-04T17:49:23.597Z,80.50
2023-05-04T17:52:11.398Z,81.00
2023-05-04T17:55:01.094Z,81.40
2023-05-04T17:57:47.960Z,81.40
2023-05-04T18:00:34.526Z,81.70
2023-05-04T18:03:21.485Z,81.70
2023-05-04T18:06:09.042Z,82.20
2023-05-04T18:08:55.618Z,83.00
2023-05-04T18:11:43.930Z,84.50
2023-05-04T18:14:30.842Z,85.60
2023-05-04T18:17:17.078Z,85.40
2023-05-04T18:20:04.211Z,86.70
2023-05-04T18:22:51.124Z,87.60
2023-05-04T18:25:38.379Z,88.70
2023-05-04T18:28:26.211Z,89.30
2023-05-04T18:31:12.871Z,90.00
2023-05-04T18:34:02.416Z,90.40
2023-05-04T18:36:49.437Z,90.80
2023-05-04T18:39:36.469Z,90.90
2023-05-04T18:42:23.150Z,91.30
2023-05-04T18:45:12.860Z,91.70
2023-05-04T18:47:59.765Z,92.00
2023-05-04T18:50:53.865Z,92.80
2023-05-04T18:53:40.777Z,93.80
2023-05-04T18:56:27.992Z,93.80
2023-05-04T18:59:14.861Z,95.30
2023-05-04T19:02:02.933Z,95.70
2023-05-04T19:04:49.735Z,96.40
2023-05-04T19:07:36.925Z,96.90
2023-05-04T19:10:23.821Z,97.70
2023-05-04T19:13:10.353Z,98.50
2023-05-04T19:15:57.318Z,99.20
2023-05-04T19:18:45.599Z,99.90
2023-05-04T19:21:32.048Z,99.90
2023-05-04T19:24:18.698Z,99.90
2023-05-04T19:27:05.408Z,99.90
2023-05-04T19:29:52.030Z,99.90
2023-05-04T19:32:38.885Z,99.90
2023-05-04T19:35:26.830Z,99.90
2023-05-04T19:38:13.746Z,99.90
2023-05-04T19:41:01.637Z,99.90
2023-05-04T19:43:48.315Z,99.90
2023-05-04T19:46:35.277Z,99.90
2023-05-04T19:49:22.743Z,99.90
2023-05-04T19:52:10.974Z,99.90
2023-05-04T19:54:57.474Z,99.90
2023-05-04T19:57:44.082Z,99.90
2023-05-04T20:00:30.940Z,99.90
2023-05-04T20:03:18.603Z,99.90
2023-05-04T20:06:05.744Z,99.90
2023-05-04T20:08:55.002Z,99.90
2023-05-04T20:11:41.540Z,99.90
2023-05-04T20:14:27.982Z,99.90
2023-05-04T20:17:15.617Z,99.90
2023-05-04T20:20:03.679Z,99.90
2023-05-04T20:22:52.527Z,99.90
2023-05-04T20:25:40.344Z,99.90
2023-05-04T20:28:26.800Z,99.90
2023-05-04T20:31:13.238Z,99.90
2023-05-04T20:33:59.546Z,99.90
2023-05-04T20:36:46.966Z,99.90
2023-05-04T20:39:33.581Z,99.90
2023-05-04T20:42:21.913Z,99.90
2023-05-04T20:45:09.882Z,99.90
2023-05-04T20:47:56.527Z,99.90
2023-05-04T20:50:43.739Z,99.90
2023-05-04T20:53:36.101Z,99.90
2023-05-04T20:56:22.950Z,99.90
2023-05-04T20:59:11.054Z,99.90
2023-05-04T21:01:57.537Z,99.90
2023-05-04T21:04:48.455Z,99.90
2023-05-04T21:07:34.742Z,99.90
2023-05-04T21:10:21.695Z,99.90
2023-05-04T21:13:08.178Z,99.90
2023-05-04T21:15:56.385Z,99.90
2023-05-04T21:18:44.638Z,99.90
2023-05-04T21:21:34.672Z,99.90
2023-05-04T21:24:21.067Z,99.90
2023-05-04T21:27:07.949Z,99.90
2023-05-04T21:29:54.917Z,99.90
2023-05-04T21:32:42.753Z,99.90
2023-05-04T21:35:30.866Z,99.90
2023-05-04T21:38:19.576Z,99.90
2023-05-04T21:41:12.597Z,99.90
2023-05-04T21:43:59.156Z,99.90
2023-05-04T21:46:46.182Z,99.90
2023-05-04T21:49:34.420Z,99.90
2023-05-04T21:52:21.943Z,99.90
2023-05-04T21:55:09.057Z,99.90
2023-05-04T21:57:56.074Z,99.90
2023-05-04T22:00:43.861Z,99.90
2023-05-04T22:03:30.539Z,99.90
2023-05-04T22:06:21.477Z,99.90
2023-05-04T22:09:08.952Z,99.90
2023-05-04T22:11:55.706Z,99.90
2023-05-04T22:14:42.684Z,99.90
2023-05-04T22:17:29.587Z,99.90
2023-05-04T22:20:16.604Z,99.90
2023-05-04T22:23:04.605Z,99.90
2023-05-04T22:25:51.443Z,99.90
2023-05-04T22:28:37.984Z,99.90
2023-05-04T22:31:24.860Z,99.90
2023-05-04T22:34:11.629Z,99.90
2023-05-04T22:36:58.178Z,99.90
2023-05-04T22:39:45.888Z,99.90
2023-05-04T22:42:32.782Z,99.90
2023-05-04T22:45:19.384Z,99.90
2023-05-04T22:48:06.241Z,99.90
2023-05-04T22:50:53.183Z,99.90
2023-05-04T22:53:40.447Z,99.90
2023-05-04T22:56:28.479Z,99.90
2023-05-04T22:59:14.990Z,99.90
2023-05-04T23:02:02.029Z,99.90
2023-05-04T23:04:49.068Z,99.90
2023-05-04T23:07:36.128Z,99.90
2023-05-04T23:10:22.997Z,99.90
2023-05-04T23:13:11.540Z,99.90
2023-05-04T23:15:58.063Z,99.90
2023-05-04T23:18:45.045Z,99.90
2023-05-04T23:21:32.185Z,99.90
2023-05-04T23:24:18.772Z,99.90
2023-05-04T23:27:05.269Z,99.90
2023-05-04T23:29:53.271Z,99.90
2023-05-04T23:32:40.112Z,99.90
2023-05-04T23:35:28.102Z,99.90
2023-05-04T23:38:14.580Z,99.90
2023-05-04T23:41:03.366Z,99.90
2023-05-04T23:43:49.975Z,99.90
2023-05-04T23:46:37.683Z,99.90
2023-05-04T23:49:24.360Z,99.90
2023-05-04T23:52:10.658Z,99.90
2023-05-04T23:54:56.947Z,99.90
2023-05-04T23:57:44.550Z,99.90
